Time;durP1;ratioP1;P1;durP2;ratioP2;P2;SDS_P1;SDS_P2;PMS_P1;PMS_P2;Temp;Humidity;BMP_temperature;BMP_pressure;BME280_temperature;BME280_humidity;BME280_pressure;Samples;Min_cycle;Max_cycle;Signal;HPM_P1;HPM_P2
2022/05/09 00:02:06;;;;;;;15.23;13.27;;;;;;;13.23;100.00;97026.44;5047612;28;20060;-46
2022/05/09 00:04:35;;;;;;;14.60;12.60;;;;;;;13.23;100.00;97023.78;5046643;28;20079;-50
2022/05/09 00:07:04;;;;;;;14.38;12.77;;;;;;;13.06;100.00;97020.13;5045806;28;20522;-51
2022/05/09 00:09:34;;;;;;;15.50;13.77;;;;;;;13.12;100.00;97024.81;5043207;28;20068;-50
2022/05/09 00:12:02;;;;;;;17.15;13.82;;;;;;;13.02;100.00;97018.75;5047953;28;20072;-52
2022/05/09 00:14:31;;;;;;;16.05;13.93;;;;;;;13.10;100.00;97013.53;5044391;28;20061;-47
2022/05/09 00:16:59;;;;;;;17.17;13.50;;;;;;;13.06;100.00;97014.81;5045454;28;20079;-46
2022/05/09 00:19:27;;;;;;;16.13;13.43;;;;;;;13.00;100.00;97018.88;5044058;28;20064;-48
2022/05/09 00:21:55;;;;;;;16.90;14.40;;;;;;;13.04;100.00;97020.28;5046829;28;20079;-49
2022/05/09 00:24:24;;;;;;;18.05;13.93;;;;;;;13.03;100.00;97023.03;5043857;28;20092;-47
2022/05/09 00:26:55;;;;;;;14.00;12.15;;;;;;;12.98;100.00;97015.56;5041340;28;20065;-50
2022/05/09 00:29:24;;;;;;;15.45;13.85;;;;;;;12.92;100.00;97025.88;5044082;28;20428;-48
2022/05/09 00:31:56;;;;;;;26.60;13.15;;;;;;;12.68;100.00;97029.84;5046053;28;20439;-49
2022/05/09 00:34:25;;;;;;;16.42;13.55;;;;;;;12.10;100.00;97032.59;5033824;28;20510;-46
2022/05/09 00:36:55;;;;;;;15.23;13.30;;;;;;;12.25;100.00;97028.56;5041750;28;20072;-46
2022/05/09 00:39:24;;;;;;;14.40;12.88;;;;;;;12.31;100.00;97030.63;5044938;28;20061;-52
2022/05/09 00:41:54;;;;;;;16.13;13.55;;;;;;;12.37;100.00;97031.06;5044578;28;20064;-46
2022/05/09 00:44:25;;;;;;;14.82;13.02;;;;;;;12.49;100.00;97024.59;5047565;28;20072;-51
2022/05/09 00:46:55;;;;;;;17.23;13.48;;;;;;;12.49;100.00;97028.13;5046871;28;20048;-48
2022/05/09 00:49:27;;;;;;;15.52;13.25;;;;;;;12.43;100.00;97022.56;5044500;28;20084;-51
2022/05/09 00:51:58;;;;;;;15.52;13.02;;;;;;;12.38;100.00;97017.66;5040741;28;20080;-54
2022/05/09 00:54:29;;;;;;;14.65;13.15;;;;;;;12.48;100.00;97021.13;5047242;28;20475;-49
2022/05/09 00:57:01;;;;;;;;;;;;;;;12.49;100.00;97020.19;5042821;28;20459;-50
2022/05/09 00:59:32;;;;;;;15.88;13.30;;;;;;;12.56;100.00;97021.28;5039750;28;19959;-50
2022/05/09 01:02:00;;;;;;;15.80;14.10;;;;;;;12.27;100.00;97021.31;5046065;28;20072;-48
2022/05/09 01:04:31;;;;;;;15.85;14.15;;;;;;;12.24;100.00;97016.31;5043812;28;20660;-48
2022/05/09 01:06:59;;;;;;;17.85;14.13;;;;;;;12.30;100.00;97021.03;5046467;28;20084;-47
2022/05/09 01:09:27;;;;;;;17.70;14.27;;;;;;;12.37;100.00;97023.94;5043088;28;20084;-52
2022/05/09 01:11:56;;;;;;;15.77;13.63;;;;;;;12.30;100.00;97026.31;5040432;28;20061;-49
2022/05/09 01:14:30;;;;;;;16.15;14.18;;;;;;;12.37;100.00;97023.13;5046140;28;20064;-46
2022/05/09 01:16:58;;;;;;;17.63;13.85;;;;;;;12.27;100.00;97025.78;5044068;28;20523;-46
2022/05/09 01:19:31;;;;;;;17.70;14.18;;;;;;;12.19;100.00;97025.66;5042065;28;20068;-47
2022/05/09 01:22:02;;;;;;;16.50;14.00;;;;;;;12.19;100.00;97029.13;5044253;28;20083;-46
2022/05/09 01:24:31;;;;;;;16.00;13.48;;;;;;;12.16;100.00;97024.13;5038278;28;20557;-50
2022/05/09 01:26:59;;;;;;;16.98;14.85;;;;;;;12.08;100.00;97022.19;5043628;28;20068;-48
2022/05/09 01:29:36;;;;;;;15.98;13.75;;;;;;;11.95;100.00;97020.78;5041182;28;20079;-47
2022/05/09 01:32:08;;;;;;;14.43;12.45;;;;;;;11.90;100.00;97023.81;5038641;28;20451;-51
2022/05/09 01:34:37;;;;;;;13.75;12.20;;;;;;;12.02;100.00;97022.72;5037449;28;20064;-51
2022/05/09 01:37:08;;;;;;;15.68;12.82;;;;;;;11.92;100.00;97021.91;5038851;28;20471;-53
2022/05/09 01:39:36;;;;;;;;;;;;;;;11.95;100.00;97015.50;5044915;28;20087;-48
2022/05/09 01:42:06;;;;;;;14.57;12.60;;;;;;;12.01;100.00;97018.44;5045907;28;19978;-46
2022/05/09 01:44:35;;;;;;;16.63;13.88;;;;;;;12.07;100.00;97019.66;5045580;28;20056;-47
2022/05/09 01:49:54;;;;;;;15.05;13.07;;;;;;;11.86;100.00;97025.91;4971149;28;20070;-48
2022/05/09 01:52:26;;;;;;;16.60;13.52;;;;;;;11.85;100.00;97026.91;5044749;28;20053;-47
2022/05/09 01:54:54;;;;;;;17.23;13.70;;;;;;;11.90;100.00;97026.47;5046362;28;20076;-47
2022/05/09 01:57:23;;;;;;;16.23;14.00;;;;;;;11.98;100.00;97028.44;5043627;28;20060;-49
2022/05/09 01:59:51;;;;;;;17.65;13.55;;;;;;;11.91;100.00;97027.34;5040514;28;20068;-50
2022/05/09 02:02:21;;;;;;;17.58;13.38;;;;;;;11.78;100.00;97024.91;5044964;28;20207;-55
2022/05/09 02:04:49;;;;;;;18.05;14.35;;;;;;;11.97;100.00;97019.66;5044769;28;20069;-54
2022/05/09 02:07:19;;;;;;;14.90;13.25;;;;;;;12.00;100.00;97021.19;5043698;28;20087;-53
2022/05/09 02:09:50;;;;;;;16.15;13.90;;;;;;;11.69;100.00;97023.09;5045521;28;20618;-48
2022/05/09 02:12:19;;;;;;;14.93;13.05;;;;;;;11.78;100.00;97030.22;5043757;28;20527;-50
2022/05/09 02:14:49;;;;;;;15.90;13.52;;;;;;;11.84;100.00;97030.53;5043516;28;20037;-53
2022/05/09 02:17:18;;;;;;;14.18;12.70;;;;;;;11.81;100.00;97020.19;5044290;28;20037;-49
2022/05/09 02:19:47;;;;;;;12.52;11.00;;;;;;;11.67;100.00;97023.25;5044522;28;20080;-49
2022/05/09 02:22:15;;;;;;;12.02;10.70;;;;;;;11.72;100.00;97020.19;5044357;28;20080;-48
2022/05/09 02:24:45;;;;;;;12.20;9.90;;;;;;;11.71;100.00;97023.81;5044037;28;20092;-48
2022/05/09 02:27:16;;;;;;;9.63;8.20;;;;;;;11.32;100.00;97019.28;5043153;28;20084;-53
2022/05/09 02:29:44;;;;;;;14.23;10.63;;;;;;;11.20;100.00;97025.66;5042269;28;20487;-50
2022/05/09 02:32:14;;;;;;;12.88;10.98;;;;;;;11.32;100.00;97029.00;5040914;28;20076;-51
2022/05/09 02:34:43;;;;;;;11.93;10.73;;;;;;;11.34;100.00;97033.19;5045455;28;20336;-47
2022/05/09 02:37:11;;;;;;;12.23;10.45;;;;;;;11.34;100.00;97033.19;5040113;28;20084;-53
2022/05/09 02:39:39;;;;;;;15.73;13.07;;;;;;;11.55;100.00;97033.09;5045329;28;20486;-50
2022/05/09 02:42:08;;;;;;;15.82;13.75;;;;;;;11.22;100.00;97031.63;5044619;28;20057;-48
2022/05/09 02:44:38;;;;;;;15.70;12.10;;;;;;;11.08;100.00;97032.84;5043649;28;20444;-46
2022/05/09 02:47:06;;;;;;;13.40;11.73;;;;;;;11.19;100.00;97031.06;5044066;28;20081;-48
2022/05/09 02:49:35;;;;;;;14.30;12.00;;;;;;;11.07;100.00;97031.16;5047016;28;20067;-48
2022/05/09 02:52:04;;;;;;;17.42;12.65;;;;;;;11.34;100.00;97033.19;5046260;28;20511;-51
2022/05/09 02:54:33;;;;;;;15.68;12.93;;;;;;;11.13;100.00;97035.06;5047670;28;20465;-48
2022/05/09 02:57:01;;;;;;;14.65;12.60;;;;;;;11.32;100.00;97032.50;5047928;28;20075;-47
2022/05/09 02:59:29;;;;;;;13.90;12.20;;;;;;;11.46;100.00;97028.63;5045742;28;20072;-52
2022/05/09 03:01:59;;;;;;;21.83;13.32;;;;;;;11.46;100.00;97033.94;5043948;28;20556;-48
2022/05/09 03:04:41;;;;;;;14.43;12.10;;;;;;;11.47;100.00;97034.75;5042741;28;20528;-48
2022/05/09 03:07:12;;;;;;;14.68;13.07;;;;;;;11.52;100.00;97041.28;5041208;28;20099;-50
2022/05/09 03:09:41;;;;;;;;;;;;;;;11.50;100.00;97035.31;5042879;28;20065;-48
2022/05/09 03:12:11;;;;;;;16.33;14.18;;;;;;;11.51;100.00;97033.50;5042735;28;19971;-52
2022/05/09 03:14:39;;;;;;;18.98;14.85;;;;;;;11.38;100.00;97028.47;5043161;28;20823;-50
2022/05/09 03:17:09;;;;;;;14.32;11.95;;;;;;;11.05;100.00;97029.63;5043383;28;20508;-51
2022/05/09 03:19:38;;;;;;;15.05;12.35;;;;;;;11.29;100.00;97035.41;5041808;28;20061;-47
2022/05/09 03:22:07;;;;;;;17.90;13.25;;;;;;;11.17;100.00;97031.19;5040503;28;20087;-48
2022/05/09 03:24:35;;;;;;;18.48;16.02;;;;;;;11.31;100.00;97035.25;5044021;28;20498;-50
2022/05/09 03:27:06;;;;;;;18.30;15.13;;;;;;;11.20;100.00;97028.28;5047425;28;20063;-48
2022/05/09 03:29:34;;;;;;;16.13;12.88;;;;;;;11.16;100.00;97035.63;5048129;28;20116;-51
2022/05/09 03:32:03;;;;;;;14.57;12.65;;;;;;;11.29;100.00;97034.56;5047455;28;20057;-52
2022/05/09 03:34:32;;;;;;;18.63;16.08;;;;;;;11.30;100.00;97042.34;5046481;28;20071;-50
2022/05/09 03:37:08;;;;;;;20.27;17.52;;;;;;;11.42;100.00;97040.41;5046613;28;20062;-48
2022/05/09 03:39:36;;;;;;;17.73;14.75;;;;;;;11.44;100.00;97038.50;5047929;28;20080;-50
2022/05/09 03:42:06;;;;;;;16.98;14.70;;;;;;;11.32;100.00;97037.78;5048061;28;20072;-48
2022/05/09 03:44:34;;;;;;;15.88;13.77;;;;;;;10.92;100.00;97037.78;5051669;28;20076;-48
2022/05/09 03:47:03;;;;;;;14.60;13.10;;;;;;;11.16;100.00;97038.28;5051448;28;20056;-48
2022/05/09 03:49:33;;;;;;;17.00;13.93;;;;;;;11.26;100.00;97042.75;5047405;28;20480;-48
2022/05/09 03:52:01;;;;;;;14.80;13.27;;;;;;;11.19;100.00;97034.53;5051880;28;20061;-50
2022/05/09 03:54:29;;;;;;;15.30;13.68;;;;;;;11.26;100.00;97048.03;5051286;28;20095;-48
2022/05/09 03:56:57;;;;;;;17.48;13.55;;;;;;;11.17;100.00;97042.59;5051087;28;20061;-46
2022/05/09 03:59:26;;;;;;;14.45;12.95;;;;;;;11.03;100.00;97048.22;5050517;28;20070;-49
2022/05/09 04:01:56;;;;;;;14.25;12.70;;;;;;;11.38;100.00;97046.94;5050032;28;20064;-48
2022/05/09 04:04:24;;;;;;;15.52;12.27;;;;;;;11.35;100.00;97050.69;5048383;28;20091;-55
2022/05/09 04:06:54;;;;;;;15.75;12.15;;;;;;;11.23;100.00;97048.31;5051097;28;20084;-47
2022/05/09 04:09:22;;;;;;;14.68;12.38;;;;;;;11.25;100.00;97038.44;5049301;28;20083;-50
2022/05/09 04:11:51;;;;;;;13.32;11.95;;;;;;;11.20;100.00;97049.41;5050549;28;20069;-49
2022/05/09 04:16:49;;;;;;;14.98;12.40;;;;;;;11.47;100.00;97047.97;5050734;28;20459;-50
2022/05/09 04:17:08;;;;;;;15.05;12.82;;;;;;;11.57;100.00;97049.66;5050122;28;20048;-46
2022/05/09 04:19:36;;;;;;;12.82;10.85;;;;;;;11.59;100.00;97050.31;5050631;28;20064;-48
2022/05/09 04:22:06;;;;;;;17.02;11.75;;;;;;;11.55;100.00;97059.50;5051199;28;20080;-48
2022/05/09 04:24:35;;;;;;;10.23;9.23;;;;;;;11.39;100.00;97046.84;5043882;28;20294;-46
2022/05/09 04:27:03;;;;;;;10.00;9.10;;;;;;;11.53;100.00;97056.19;5050599;28;20084;-48
2022/05/09 04:29:32;;;;;;;9.40;8.40;;;;;;;11.62;100.00;97054.50;5047923;28;20061;-48
2022/05/09 04:32:00;;;;;;;11.85;9.95;;;;;;;11.56;100.00;97055.03;5043278;28;20057;-46
2022/05/09 04:34:28;;;;;;;16.98;10.35;;;;;;;11.40;100.00;97052.94;5059630;28;20482;-48
2022/05/09 04:36:57;;;;;;;11.13;10.02;;;;;;;11.92;100.00;97050.13;5058583;28;20075;-47
2022/05/09 04:39:27;;;;;;;11.68;10.00;;;;;;;11.84;100.00;97056.13;5050016;28;20083;-48
2022/05/09 04:41:56;;;;;;;11.05;9.63;;;;;;;11.85;100.00;97063.06;5050119;28;20535;-47
2022/05/09 04:44:24;;;;;;;11.20;10.10;;;;;;;12.02;100.00;97066.84;5050033;28;20076;-47
2022/05/09 04:46:52;;;;;;;11.70;10.38;;;;;;;12.14;100.00;97065.72;5047982;28;20080;-51
2022/05/09 04:49:21;;;;;;;13.93;9.98;;;;;;;12.58;100.00;97064.28;5068475;28;20067;-53
2022/05/09 04:51:49;;;;;;;11.63;9.85;;;;;;;12.67;100.00;97059.97;5050268;28;20636;-47
2022/05/09 04:54:17;;;;;;;8.88;8.07;;;;;;;12.79;100.00;97060.59;5049821;28;20076;-51
2022/05/09 04:56:47;;;;;;;8.35;7.60;;;;;;;12.75;100.00;97067.16;5049908;28;20076;-47
2022/05/09 04:59:15;;;;;;;9.70;8.53;;;;;;;12.83;100.00;97064.63;5049484;28;20460;-45
2022/05/09 05:01:44;;;;;;;12.60;11.30;;;;;;;12.91;100.00;97054.19;5048535;28;20057;-46
2022/05/09 05:04:14;;;;;;;13.23;11.80;;;;;;;13.14;100.00;97061.75;5049975;28;20079;-46
2022/05/09 05:06:42;;;;;;;13.13;11.65;;;;;;;12.87;100.00;97062.53;5050243;28;20507;-49
2022/05/09 05:09:11;;;;;;;14.10;12.57;;;;;;;12.94;100.00;97064.47;5048720;28;20061;-47
2022/05/09 05:11:40;;;;;;;14.93;12.98;;;;;;;13.09;100.00;97061.34;5049470;28;20084;-48
2022/05/09 05:14:09;;;;;;;14.70;13.27;;;;;;;13.78;100.00;97061.72;5045245;28;20507;-46
2022/05/09 05:19:23;;;;;;;16.48;13.52;;;;;;;13.75;100.00;97064.66;5049517;28;20476;-46
2022/05/09 05:21:52;;;;;;;14.48;12.32;;;;;;;14.30;100.00;97060.22;5049890;28;20084;-47
2022/05/09 05:24:20;;;;;;;10.63;9.52;;;;;;;14.53;100.00;97063.25;5049433;28;20073;-46
2022/05/09 05:26:48;;;;;;;11.00;9.95;;;;;;;14.74;100.00;97060.25;5049350;28;20072;-50
2022/05/09 05:29:18;;;;;;;10.80;9.80;;;;;;;15.00;100.00;97065.53;5048241;28;20467;-51
2022/05/09 05:31:46;;;;;;;12.23;11.02;;;;;;;14.84;100.00;97069.78;5048815;28;20072;-47
2022/05/09 05:34:15;;;;;;;12.90;11.45;;;;;;;14.97;100.00;97064.06;5049566;28;20084;-50
2022/05/09 05:36:43;;;;;;;11.93;10.32;;;;;;;15.41;100.00;97071.88;5049666;28;20072;-51
2022/05/09 05:39:15;;;;;;;10.27;9.23;;;;;;;15.72;100.00;97072.19;5048703;28;20610;-51
2022/05/09 05:41:43;;;;;;;10.32;9.27;;;;;;;15.77;100.00;97066.41;5042331;28;20061;-52
2022/05/09 05:44:12;;;;;;;11.68;10.15;;;;;;;15.95;100.00;97068.94;5046833;28;20068;-47
2022/05/09 05:46:42;;;;;;;11.73;10.60;;;;;;;15.71;100.00;97072.38;5043296;28;20432;-52
2022/05/09 05:49:11;;;;;;;12.93;10.68;;;;;;;16.19;100.00;97076.13;5049062;28;20069;-46
2022/05/09 05:51:39;;;;;;;12.20;10.85;;;;;;;16.37;100.00;97074.97;5049232;28;20136;-47
2022/05/09 05:54:07;;;;;;;12.70;11.40;;;;;;;16.25;100.00;97078.97;5048875;28;20549;-48
2022/05/09 05:56:37;;;;;;;13.38;11.80;;;;;;;15.74;100.00;97086.19;5046941;28;20072;-51
2022/05/09 05:59:09;;;;;;;12.70;11.50;;;;;;;16.06;100.00;97085.41;5048916;28;20072;-49
2022/05/09 06:01:37;;;;;;;13.63;12.23;;;;;;;16.11;100.00;97083.09;5046520;28;20069;-47
2022/05/09 06:04:07;;;;;;;14.50;12.73;;;;;;;17.11;100.00;97080.28;5048645;28;20064;-46
2022/05/09 06:06:35;;;;;;;14.70;13.10;;;;;;;17.58;100.00;97078.59;5047947;28;20159;-49
2022/05/09 06:09:05;;;;;;;14.32;13.00;;;;;;;17.07;100.00;97086.94;5048358;28;20068;-49
2022/05/09 06:11:33;;;;;;;17.25;13.73;;;;;;;17.43;100.00;97082.00;5047144;28;20452;-49
2022/05/09 06:14:19;;;;;;;16.30;14.25;;;;;;;18.01;100.00;97083.44;5047354;28;20064;-54
2022/05/09 06:16:48;;;;;;;16.75;14.60;;;;;;;17.53;100.00;97082.63;5048645;28;20087;-51
2022/05/09 06:19:17;;;;;;;16.58;14.85;;;;;;;17.51;100.00;97083.81;5048322;28;20083;-51
2022/05/09 06:21:46;;;;;;;15.85;14.25;;;;;;;17.48;100.00;97087.66;5049171;28;20085;-49
2022/05/09 06:24:14;;;;;;;17.00;14.80;;;;;;;17.42;100.00;97091.00;5048551;28;20060;-49
2022/05/09 06:26:44;;;;;;;16.77;15.05;;;;;;;16.74;100.00;97089.66;5048804;28;20440;-46
2022/05/09 06:29:12;;;;;;;16.88;14.80;;;;;;;17.13;100.00;97083.59;5048117;28;20163;-47
2022/05/09 06:31:59;;;;;;;16.40;14.70;;;;;;;17.68;100.00;97084.56;5043122;28;20061;-46
2022/05/09 06:34:29;;;;;;;15.82;14.07;;;;;;;17.69;100.00;97086.25;5048141;28;20527;-46
2022/05/09 06:36:57;;;;;;;18.27;14.73;;;;;;;17.44;100.00;97094.31;5048946;28;20084;-50
2022/05/09 06:39:27;;;;;;;17.45;15.57;;;;;;;17.52;100.00;97106.81;5044018;28;20076;-48
2022/05/09 06:41:55;;;;;;;19.35;15.63;;;;;;;17.07;100.00;97103.78;5048022;28;20061;-46
2022/05/09 06:44:24;;;;;;;18.77;16.77;;;;;;;17.53;100.00;97101.28;5048978;28;20068;-51
2022/05/09 06:46:52;;;;;;;17.73;15.93;;;;;;;17.61;100.00;97105.75;5051895;28;20452;-46
2022/05/09 06:49:20;;;;;;;18.27;16.38;;;;;;;18.20;100.00;97106.19;5048117;28;20081;-49
2022/05/09 06:51:50;;;;;;;18.77;16.58;;;;;;;17.67;100.00;97113.06;5045993;28;20095;-48
2022/05/09 06:54:21;;;;;;;19.53;17.53;;;;;;;17.59;100.00;97112.28;5051277;28;20061;-53
2022/05/09 06:56:50;;;;;;;19.02;17.02;;;;;;;18.19;100.00;97112.50;5043813;28;20071;-50
2022/05/09 06:59:19;;;;;;;20.35;18.23;;;;;;;17.85;100.00;97115.53;5048004;28;20076;-49
2022/05/09 07:01:48;;;;;;;19.30;16.47;;;;;;;17.97;100.00;97116.81;5047701;28;20071;-47
2022/05/09 07:04:17;;;;;;;18.05;16.10;;;;;;;17.93;100.00;97112.84;5047935;28;20494;-46
2022/05/09 07:06:45;;;;;;;19.13;17.13;;;;;;;17.74;100.00;97116.72;5048544;28;20558;-48
2022/05/09 07:09:15;;;;;;;19.70;17.50;;;;;;;17.94;100.00;97113.66;5047436;28;20107;-51
2022/05/09 07:11:44;;;;;;;20.42;17.60;;;;;;;17.96;100.00;97119.63;5047892;28;20069;-50
2022/05/09 07:14:13;;;;;;;20.85;16.98;;;;;;;17.94;100.00;97116.34;5048041;28;20455;-50
2022/05/09 07:16:41;;;;;;;20.70;18.50;;;;;;;17.82;100.00;97121.22;5049400;28;20061;-51
2022/05/09 07:19:09;;;;;;;20.83;18.05;;;;;;;18.07;100.00;97124.59;5051820;28;20092;-49
2022/05/09 07:21:38;;;;;;;20.45;18.35;;;;;;;17.98;100.00;97114.97;5049096;28;20100;-46
2022/05/09 07:24:07;;;;;;;21.77;18.15;;;;;;;18.29;100.00;97109.63;5051894;28;20064;-49
2022/05/09 07:26:37;;;;;;;19.57;17.37;;;;;;;18.66;100.00;97113.34;5051984;28;20581;-48
2022/05/09 07:29:06;;;;;;;20.35;18.05;;;;;;;18.27;100.00;97117.81;5051070;28;20071;-54
2022/05/09 07:31:37;;;;;;;17.88;16.08;;;;;;;18.14;100.00;97117.56;5051030;28;20069;-49
2022/05/09 07:34:05;;;;;;;19.10;15.95;;;;;;;18.19;100.00;97122.34;5049643;28;20084;-49
2022/05/09 07:36:34;;;;;;;18.70;16.63;;;;;;;18.39;100.00;97118.22;5051593;28;20081;-50
2022/05/09 07:39:02;;;;;;;18.88;16.73;;;;;;;18.52;100.00;97114.16;5044856;28;20064;-46
2022/05/09 07:41:31;;;;;;;17.08;15.38;;;;;;;18.66;100.00;97116.03;5044797;28;20068;-46
2022/05/09 07:44:01;;;;;;;17.92;15.93;;;;;;;18.40;100.00;97108.38;5051507;28;20045;-47
2022/05/09 07:46:29;;;;;;;17.92;15.70;;;;;;;18.70;100.00;97118.16;5051159;28;20065;-48
2022/05/09 07:49:12;;;;;;;17.48;15.68;;;;;;;18.82;100.00;97115.09;5051337;28;20084;-48
2022/05/09 07:51:40;;;;;;;17.60;15.70;;;;;;;19.35;100.00;97106.03;5051138;28;20069;-49
2022/05/09 07:54:11;;;;;;;19.52;16.75;;;;;;;19.18;100.00;97104.56;5051098;28;20075;-55
2022/05/09 07:56:43;;;;;;;18.40;16.48;;;;;;;19.23;100.00;97117.38;5052329;28;20041;-51
2022/05/09 07:59:13;;;;;;;18.60;16.70;;;;;;;19.65;100.00;97111.44;5050378;28;20479;-46
2022/05/09 08:01:41;;;;;;;19.35;17.35;;;;;;;19.47;100.00;97113.59;5050895;28;20064;-49
2022/05/09 08:04:10;;;;;;;18.90;16.52;;;;;;;19.39;100.00;97111.84;5051024;28;20088;-49
2022/05/09 08:06:38;;;;;;;17.80;16.00;;;;;;;19.33;100.00;97116.09;5051584;28;20092;-47
2022/05/09 08:09:07;;;;;;;18.60;16.02;;;;;;;19.17;100.00;97114.44;5050948;28;20061;-50
2022/05/09 08:11:35;;;;;;;19.27;16.20;;;;;;;18.96;100.00;97101.78;5050431;28;20064;-49
2022/05/09 08:14:04;;;;;;;19.08;15.55;;;;;;;19.97;100.00;97112.84;5050788;28;20071;-51
2022/05/09 08:16:33;;;;;;;17.05;15.23;;;;;;;20.01;100.00;97111.47;5048341;28;20108;-51
2022/05/09 08:19:02;;;;;;;17.67;14.88;;;;;;;19.99;100.00;97115.34;5051229;28;20087;-49
2022/05/09 08:21:30;;;;;;;18.80;15.50;;;;;;;19.53;100.00;97108.34;5050201;28;20068;-52
2022/05/09 08:24:00;;;;;;;16.40;14.80;;;;;;;19.32;100.00;97109.09;5050320;28;20064;-50
2022/05/09 08:26:28;;;;;;;16.38;14.68;;;;;;;19.81;100.00;97107.72;5050954;28;20056;-52
2022/05/09 08:28:56;;;;;;;21.55;15.82;;;;;;;19.30;100.00;97108.44;5050084;28;20068;-51
2022/05/09 08:31:25;;;;;;;17.75;15.32;;;;;;;19.66;100.00;97108.56;5049959;28;20080;-47
2022/05/09 08:33:56;;;;;;;18.00;15.82;;;;;;;19.21;100.00;97102.34;5050936;28;20072;-50
2022/05/09 08:39:10;;;;;;;16.33;14.73;;;;;;;20.45;100.00;97107.00;5048911;28;20068;-47
2022/05/09 08:41:50;;;;;;;16.75;15.05;;;;;;;20.26;100.00;97108.44;5051498;28;20068;-53
2022/05/09 08:44:21;;;;;;;;;;;;;;;19.98;100.00;97114.50;5050043;28;20065;-53
2022/05/09 08:47:07;;;;;;;16.25;13.90;;;;;;;20.38;100.00;97109.59;5047653;28;19959;-51
2022/05/09 08:49:46;;;;;;;14.80;13.32;;;;;;;20.09;100.00;97111.34;5049466;28;20523;-54
2022/05/09 08:52:19;;;;;;;16.38;14.52;;;;;;;20.23;100.00;97104.28;5045039;28;20092;-51
2022/05/09 08:54:49;;;;;;;16.73;14.68;;;;;;;19.94;100.00;97117.75;5049799;28;20119;-53
2022/05/09 08:57:21;;;;;;;17.13;13.82;;;;;;;19.95;100.00;97114.06;5049942;28;20073;-54
2022/05/09 08:59:52;;;;;;;17.70;14.18;;;;;;;20.30;100.00;97107.88;5047287;28;20072;-47
2022/05/09 09:02:25;;;;;;;16.55;14.68;;;;;;;20.13;100.00;97119.81;5046659;28;20542;-49
2022/05/09 09:04:58;;;;;;;17.42;15.50;;;;;;;20.28;100.00;97117.13;5049866;28;20053;-50
2022/05/09 09:07:41;;;;;;;16.55;14.77;;;;;;;19.91;100.00;97121.63;5050001;28;20064;-49
2022/05/09 09:10:17;;;;;;;17.73;16.02;;;;;;;20.20;100.00;97119.91;5043737;28;20089;-54
2022/05/09 09:12:57;;;;;;;17.67;15.88;;;;;;;20.28;100.00;97125.97;5045165;28;20073;-49
2022/05/09 09:15:32;;;;;;;19.25;16.52;;;;;;;20.49;100.00;97121.66;5049875;28;20073;-49
2022/05/09 09:18:25;;;;;;;18.05;15.90;;;;;;;20.69;100.00;97121.91;5049516;28;20064;-54
2022/05/09 09:21:00;;;;;;;17.60;15.68;;;;;;;21.25;100.00;97116.56;5049809;28;20087;-49
2022/05/09 09:23:44;;;;;;;16.65;14.77;;;;;;;20.89;100.00;97119.38;5049468;28;20077;-51
2022/05/09 09:26:20;;;;;;;18.17;14.35;;;;;;;21.72;100.00;97115.03;5049778;28;20067;-51
2022/05/09 09:28:51;;;;;;;16.20;14.60;;;;;;;20.94;100.00;97122.31;5049294;28;20443;-54
2022/05/09 09:31:24;;;;;;;16.88;14.52;;;;;;;21.36;100.00;97107.19;5049046;28;20096;-50
2022/05/09 09:33:57;;;;;;;15.68;13.93;;;;;;;20.79;100.00;97120.56;5049957;28;20601;-50
2022/05/09 09:36:41;;;;;;;17.00;14.52;;;;;;;20.91;100.00;97112.81;5049867;28;20555;-52
2022/05/09 09:39:13;;;;;;;13.75;11.70;;;;;;;20.61;100.00;97112.13;5048835;28;20073;-52
2022/05/09 09:41:42;;;;;;;15.88;14.35;;;;;;;20.93;100.00;97118.00;5047936;28;20974;-52
2022/05/09 09:44:14;;;;;;;16.00;14.40;;;;;;;21.24;100.00;97105.00;5048887;28;20068;-52
2022/05/09 09:47:04;;;;;;;15.75;14.20;;;;;;;21.52;100.00;97104.19;5045950;28;20053;-49
2022/05/09 09:49:35;;;;;;;14.55;13.07;;;;;;;21.42;100.00;97109.91;5046148;28;20306;-53
2022/05/09 09:52:15;;;;;;;13.05;11.73;;;;;;;21.47;100.00;97104.78;5043021;28;20068;-47
2022/05/09 09:54:49;;;;;;;13.85;12.55;;;;;;;21.60;100.00;97105.88;5048690;28;20569;-47
2022/05/09 09:57:21;;;;;;;14.13;11.82;;;;;;;21.51;100.00;97105.22;5049157;28;20103;-50
2022/05/09 09:59:50;;;;;;;13.15;11.65;;;;;;;22.30;100.00;97096.69;5045625;28;20075;-48
2022/05/09 10:02:25;;;;;;;12.85;11.35;;;;;;;22.34;100.00;97099.81;5049014;28;20400;-48
2022/05/09 10:04:55;;;;;;;15.85;12.38;;;;;;;21.77;100.00;97102.66;5048897;28;20525;-49
2022/05/09 10:07:31;;;;;;;15.48;13.98;;;;;;;22.24;100.00;97097.50;5049295;28;20073;-52
2022/05/09 10:10:10;;;;;;;17.88;13.02;;;;;;;22.82;100.00;97108.56;5047031;28;20081;-52
2022/05/09 10:12:40;;;;;;;14.98;13.57;;;;;;;22.67;100.00;97100.66;5048452;28;20075;-52
2022/05/09 10:15:28;;;;;;;13.60;12.30;;;;;;;22.30;100.00;97101.22;5049055;28;20063;-51
2022/05/09 10:17:58;;;;;;;14.15;12.52;;;;;;;22.47;100.00;97091.75;5049011;28;20129;-49
2022/05/09 10:20:33;;;;;;;14.98;12.40;;;;;;;22.25;100.00;97099.16;5048355;28;20068;-47
2022/05/09 10:26:01;;;;;;;13.82;12.43;;;;;;;22.40;100.00;97093.59;5044126;28;20079;-47
2022/05/09 10:28:31;;;;;;;13.98;12.57;;;;;;;21.50;100.00;97098.19;5048375;28;20088;-51
2022/05/09 10:31:06;;;;;;;13.95;12.55;;;;;;;21.57;100.00;97090.97;5048763;28;20080;-52
2022/05/09 10:33:39;;;;;;;14.82;12.32;;;;;;;22.63;100.00;97094.03;5048081;28;20320;-51
2022/05/09 10:36:29;;;;;;;15.38;13.60;;;;;;;22.61;100.00;97092.59;5048509;28;20072;-49
2022/05/09 10:39:02;;;;;;;14.68;12.60;;;;;;;22.10;100.00;97093.91;5048199;28;20068;-51
2022/05/09 10:41:34;;;;;;;13.75;12.35;;;;;;;22.64;100.00;97089.50;5043533;28;20074;-53
2022/05/09 10:44:10;;;;;;;14.52;12.95;;;;;;;22.79;100.00;97081.25;5048360;28;20044;-50
2022/05/09 10:46:44;;;;;;;14.13;12.27;;;;;;;21.94;100.00;97087.03;5045978;28;20056;-53
2022/05/09 10:49:21;;;;;;;14.48;12.55;;;;;;;21.83;100.00;97087.59;5047374;28;20077;-52
2022/05/09 10:51:57;;;;;;;13.50;12.10;;;;;;;22.26;100.00;97081.97;5048015;28;20045;-52
2022/05/09 10:54:31;;;;;;;12.45;11.15;;;;;;;22.06;100.00;97079.22;5053686;28;20068;-52
2022/05/09 10:57:05;;;;;;;14.10;12.70;;;;;;;22.90;100.00;97073.38;5052424;28;20092;-51
2022/05/09 10:59:44;;;;;;;13.77;12.40;;;;;;;22.31;100.00;97067.97;5051678;28;20064;-50
2022/05/09 11:02:18;;;;;;;14.52;12.95;;;;;;;22.53;100.00;97069.41;5051983;28;20523;-48
2022/05/09 11:04:47;;;;;;;14.70;13.15;;;;;;;22.12;100.00;97066.84;5052368;28;20443;-53
2022/05/09 11:07:29;;;;;;;13.48;12.07;;;;;;;21.73;100.00;97060.31;5051355;28;20516;-51
2022/05/09 11:10:19;;;;;;;12.00;10.70;;;;;;;21.58;100.00;97062.31;5045836;28;20084;-49
2022/05/09 11:12:50;;;;;;;;;;;;;;;22.27;100.00;97054.94;5051908;28;20343;-50
2022/05/09 11:15:23;;;;;;;14.05;10.25;;;;;;;22.05;100.00;97051.53;5051980;28;19956;-50
2022/05/09 11:17:58;;;;;;;11.95;10.73;;;;;;;21.83;100.00;97055.38;5051956;28;20538;-49
2022/05/09 11:20:32;;;;;;;11.60;10.32;;;;;;;22.05;100.00;97042.63;5051507;28;20057;-52
2022/05/09 11:23:14;;;;;;;12.15;10.85;;;;;;;22.00;100.00;97047.81;5051510;28;20072;-52
2022/05/09 11:25:59;;;;;;;12.00;10.50;;;;;;;22.82;100.00;97035.94;5051688;28;20057;-48
2022/05/09 11:28:48;;;;;;;10.82;9.82;;;;;;;23.31;100.00;97028.44;5051669;28;20056;-49
2022/05/09 11:31:24;;;;;;;11.23;10.10;;;;;;;23.14;100.00;97028.88;5047133;28;20516;-49
2022/05/09 11:34:01;;;;;;;10.27;9.23;;;;;;;23.31;100.00;97033.81;5045577;28;20583;-53
2022/05/09 11:36:59;;;;;;;11.73;9.27;;;;;;;23.29;100.00;97028.63;5051380;28;20575;-54
2022/05/09 11:39:37;;;;;;;11.57;10.15;;;;;;;23.48;100.00;97018.03;5050785;28;20553;-53
2022/05/09 11:45:09;;;;;;;12.10;8.95;;;;;;;22.97;100.00;97027.66;5049620;28;20396;-50